Time;durP1;ratioP1;P1;durP2;ratioP2;P2;SDS_P1;SDS_P2;PMS_P1;PMS_P2;Temp;Humidity;BMP_temperature;BMP_pressure;BME280_temperature;BME280_humidity;BME280_pressure;Samples;Min_cycle;Max_cycle;Signal;HPM_P1;HPM_P2
2022/04/04 00:01:05;;;;;;;3.65;2.03;;;11.60;66.20;;;;;;5013566;28;20121;-78
2022/04/04 00:03:30;;;;;;;3.85;1.90;;;11.60;66.10;;;;;;5013657;28;20029;-75
2022/04/04 00:05:57;;;;;;;4.28;2.20;;;11.60;65.90;;;;;;5013848;28;20113;-77
2022/04/04 00:08:22;;;;;;;3.28;1.98;;;11.60;66.00;;;;;;5014463;28;20022;-77
2022/04/04 00:10:48;;;;;;;3.55;2.00;;;11.60;66.40;;;;;;5014881;28;20028;-77
2022/04/04 00:13:14;;;;;;;3.50;2.10;;;11.60;66.50;;;;;;4999123;28;20382;-78
2022/04/04 00:15:40;;;;;;;3.58;2.00;;;11.60;66.30;;;;;;5014301;28;20033;-77
2022/04/04 00:18:07;;;;;;;4.25;2.05;;;11.60;66.40;;;;;;5013645;28;20036;-77
2022/04/04 00:20:32;;;;;;;4.15;2.10;;;11.60;66.40;;;;;;5012427;28;20489;-78
2022/04/04 00:22:58;;;;;;;3.85;2.20;;;11.60;66.50;;;;;;5012987;28;20029;-77
2022/04/04 00:25:23;;;;;;;4.25;2.15;;;11.60;66.60;;;;;;5012660;28;20105;-76
2022/04/04 00:27:50;;;;;;;2.83;1.80;;;11.60;66.50;;;;;;5012598;28;20030;-77
2022/04/04 00:30:17;;;;;;;4.63;2.20;;;11.50;66.40;;;;;;5012827;28;20015;-77
2022/04/04 00:32:43;;;;;;;5.57;2.20;;;11.60;66.50;;;;;;5012634;28;21818;-75
2022/04/04 00:35:09;;;;;;;3.85;2.05;;;11.50;66.50;;;;;;5013064;28;20037;-77
2022/04/04 00:37:37;;;;;;;4.57;2.20;;;11.60;66.40;;;;;;5012588;28;20025;-76
2022/04/04 00:40:07;;;;;;;3.47;2.10;;;11.60;66.40;;;;;;5012658;28;20034;-76
2022/04/04 00:42:32;;;;;;;4.47;2.22;;;11.50;66.40;;;;;;5012852;28;20511;-77
2022/04/04 00:44:58;;;;;;;3.67;2.08;;;11.50;66.00;;;;;;5012884;28;20026;-77
2022/04/04 00:47:24;;;;;;;3.20;1.92;;;11.50;66.20;;;;;;5012304;28;20033;-77
2022/04/04 00:49:49;;;;;;;4.65;2.30;;;11.50;66.30;;;;;;5012472;28;20022;-77
2022/04/04 00:52:16;;;;;;;4.78;2.40;;;11.50;66.30;;;;;;5028979;28;20037;-77
2022/04/04 00:54:41;;;;;;;3.88;2.35;;;11.50;66.30;;;;;;5012386;28;20050;-77
2022/04/04 00:57:07;;;;;;;4.78;2.50;;;11.50;66.30;;;;;;5013408;28;20095;-76
2022/04/04 00:59:33;;;;;;;4.50;1.98;;;11.60;66.30;;;;;;5013268;28;20025;-76
2022/04/04 01:01:59;;;;;;;4.38;2.53;;;11.50;66.30;;;;;;5013457;28;20117;-77
2022/04/04 01:04:25;;;;;;;4.13;2.28;;;11.50;66.40;;;;;;5012645;28;20104;-77
2022/04/04 01:06:50;;;;;;;3.90;2.17;;;11.40;66.30;;;;;;5011936;28;20022;-78
2022/04/04 01:09:16;;;;;;;3.85;2.28;;;11.50;66.30;;;;;;5011554;28;20026;-77
2022/04/04 01:12:06;;;;;;;4.40;2.30;;;11.50;66.40;;;;;;5012864;28;20101;-76
2022/04/04 01:14:32;;;;;;;3.92;2.30;;;11.50;66.30;;;;;;5013263;28;20057;-77
2022/04/04 01:16:58;;;;;;;4.70;2.13;;;11.50;66.30;;;;;;5012232;28;20022;-77
2022/04/04 01:19:23;;;;;;;4.93;2.45;;;11.50;66.30;;;;;;5027913;28;20022;-77
2022/04/04 01:21:48;;;;;;;4.15;2.40;;;11.50;66.20;;;;;;5013091;28;20440;-77
2022/04/04 01:24:21;;;;;;;4.35;2.50;;;11.50;66.20;;;;;;5028459;28;20022;-76
2022/04/04 01:26:48;;;;;;;4.20;2.40;;;11.50;66.20;;;;;;4998162;28;20022;-76
2022/04/04 01:29:14;;;;;;;5.20;2.50;;;11.50;66.20;;;;;;5011404;28;20033;-76
2022/04/04 01:31:40;;;;;;;3.80;2.40;;;11.50;66.20;;;;;;5012082;28;20392;-77
2022/04/04 01:34:06;;;;;;;4.35;2.42;;;11.50;66.20;;;;;;5011465;28;20370;-76
2022/04/04 01:36:31;;;;;;;4.57;2.70;;;11.50;66.20;;;;;;4995163;28;20037;-77
2022/04/04 01:38:57;;;;;;;4.72;2.53;;;11.50;66.10;;;;;;4994557;28;20022;-76
2022/04/04 01:41:22;;;;;;;5.30;2.60;;;11.50;66.30;;;;;;4995415;28;20164;-76
2022/04/04 01:43:48;;;;;;;4.45;2.78;;;11.50;66.10;;;;;;4994947;28;20072;-77
2022/04/04 01:46:26;;;;;;;4.80;2.50;;;11.50;66.20;;;;;;5012459;28;20105;-76
2022/04/04 01:48:53;;;;;;;4.00;2.60;;;11.40;66.10;;;;;;5010929;28;20402;-77
2022/04/04 01:51:19;;;;;;;3.88;2.40;;;11.50;66.10;;;;;;5012449;28;20080;-78
2022/04/04 01:53:45;;;;;;;4.68;2.72;;;11.50;66.10;;;;;;5012779;28;20038;-76
2022/04/04 01:56:11;;;;;;;5.68;2.90;;;11.50;66.10;;;;;;4994989;28;20036;-77
2022/04/04 01:58:37;;;;;;;5.72;2.70;;;11.40;66.10;;;;;;4994321;28;20113;-76
2022/04/04 02:01:10;;;;;;;5.15;2.67;;;11.40;66.10;;;;;;5012391;28;20034;-77
2022/04/04 02:03:38;;;;;;;4.90;3.05;;;11.40;66.10;;;;;;4994772;28;20087;-77
2022/04/04 02:06:04;;;;;;;4.78;2.80;;;11.40;65.90;;;;;;5011045;28;20400;-77
2022/04/04 02:08:31;;;;;;;4.57;3.00;;;11.40;65.90;;;;;;5011634;28;20025;-77
2022/04/04 02:10:57;;;;;;;4.90;3.00;;;11.50;66.10;;;;;;5012211;28;20032;-77
2022/04/04 02:13:25;;;;;;;6.68;3.20;;;11.50;66.00;;;;;;4991086;28;20131;-78
2022/04/04 02:15:54;;;;;;;5.15;2.90;;;11.40;66.00;;;;;;5012316;28;20026;-76
2022/04/04 02:18:20;;;;;;;5.00;2.60;;;11.40;66.00;;;;;;5010564;28;20080;-78
2022/04/04 02:20:46;;;;;;;4.50;2.80;;;11.40;66.00;;;;;;4994645;28;20053;-76
2022/04/04 02:23:13;;;;;;;5.60;2.80;;;11.40;66.00;;;;;;4993984;28;20064;-77
2022/04/04 02:25:38;;;;;;;5.40;3.20;;;11.40;66.00;;;;;;4994506;28;20527;-77
2022/04/04 02:28:05;;;;;;;4.82;3.15;;;11.40;65.90;;;;;;4994110;28;20038;-77
2022/04/04 02:30:31;;;;;;;4.85;2.95;;;11.40;66.00;;;;;;5010581;28;20654;-78
2022/04/04 02:32:56;;;;;;;5.30;3.20;;;11.40;66.00;;;;;;5001077;28;20045;-76
2022/04/04 02:35:22;;;;;;;4.63;2.90;;;11.30;65.90;;;;;;5010924;28;20477;-77
2022/04/04 02:37:47;;;;;;;5.03;2.83;;;11.40;65.80;;;;;;5010630;28;20084;-76
2022/04/04 02:40:13;;;;;;;6.00;3.60;;;11.40;65.80;;;;;;5010336;28;20037;-78
2022/04/04 02:42:39;;;;;;;5.85;3.33;;;11.40;65.80;;;;;;5010538;28;20088;-77
2022/04/04 02:45:05;;;;;;;5.38;3.40;;;11.40;66.60;;;;;;5015260;28;20113;-76
2022/04/04 02:47:30;;;;;;;5.88;3.60;;;11.40;65.90;;;;;;5016806;28;20489;-78
2022/04/04 02:49:56;;;;;;;4.97;3.10;;;11.40;65.90;;;;;;5018822;28;20026;-76
2022/04/04 02:52:21;;;;;;;5.60;3.42;;;11.40;65.80;;;;;;5017444;28;20560;-76
2022/04/04 02:54:46;;;;;;;5.40;3.20;;;11.40;65.90;;;;;;5017178;28;20026;-76
2022/04/04 02:57:14;;;;;;;6.00;3.45;;;11.40;65.80;;;;;;5017992;28;20057;-76
2022/04/04 02:59:39;;;;;;;5.82;3.85;;;11.40;65.80;;;;;;5018239;28;20392;-77
2022/04/04 03:02:05;;;;;;;6.40;3.50;;;11.40;65.70;;;;;;5018250;28;20036;-77
2022/04/04 03:04:30;;;;;;;5.57;3.47;;;11.40;65.80;;;;;;5017155;28;20053;-77
2022/04/04 03:06:56;;;;;;;6.22;3.88;;;11.40;65.70;;;;;;5017170;28;20117;-76
2022/04/04 03:09:22;;;;;;;6.70;3.75;;;11.40;65.80;;;;;;5033718;28;20056;-77
2022/04/04 03:11:47;;;;;;;6.35;3.78;;;11.40;65.70;;;;;;5033610;28;20022;-76
2022/04/04 03:14:13;;;;;;;5.78;3.47;;;11.30;65.90;;;;;;5017210;28;20560;-77
2022/04/04 03:16:38;;;;;;;5.85;3.55;;;11.40;65.70;;;;;;5018262;28;20080;-77
2022/04/04 03:19:04;;;;;;;6.38;4.03;;;11.30;65.80;;;;;;5017483;28;20109;-78
2022/04/04 03:21:29;;;;;;;4.97;3.17;;;11.30;65.80;;;;;;5018419;28;20053;-76
2022/04/04 03:23:55;;;;;;;6.38;4.15;;;11.30;65.70;;;;;;5016893;28;20104;-78
2022/04/04 03:26:21;;;;;;;6.78;4.05;;;11.30;65.70;;;;;;5018289;28;20385;-76
2022/04/04 03:28:46;;;;;;;11.15;4.38;;;11.40;65.80;;;;;;5017704;28;20149;-77
2022/04/04 03:31:13;;;;;;;6.93;3.80;;;11.30;65.80;;;;;;5017909;28;20117;-77
2022/04/04 03:33:38;;;;;;;8.35;4.15;;;11.30;65.80;;;;;;5018138;28;20104;-77
2022/04/04 03:36:04;;;;;;;6.88;3.72;;;11.30;65.60;;;;;;5000356;28;20053;-77
2022/04/04 03:38:30;;;;;;;6.45;3.80;;;11.30;65.60;;;;;;5000327;28;20022;-78
2022/04/04 03:40:56;;;;;;;6.30;3.80;;;11.30;65.20;;;;;;5000294;28;20033;-77
2022/04/04 03:43:22;;;;;;;6.20;4.03;;;11.40;65.60;;;;;;5000526;28;20108;-77
2022/04/04 03:45:48;;;;;;;9.30;4.18;;;11.30;65.70;;;;;;5000249;28;20548;-76
2022/04/04 03:48:14;;;;;;;6.90;4.28;;;11.30;65.60;;;;;;5016852;28;20109;-77
2022/04/04 03:50:40;;;;;;;7.22;4.60;;;11.30;65.60;;;;;;5018017;28;20113;-77
2022/04/04 03:53:06;;;;;;;7.28;4.30;;;11.30;65.70;;;;;;5000318;28;20117;-78
2022/04/04 03:55:36;;;;;;;6.20;3.78;;;11.30;65.60;;;;;;5016691;28;20022;-77
2022/04/04 03:58:02;;;;;;;8.32;3.97;;;11.30;65.50;;;;;;4997084;28;20033;-77
2022/04/04 04:00:28;;;;;;;9.50;4.20;;;11.30;65.40;;;;;;4997193;28;20118;-76
2022/04/04 04:02:54;;;;;;;6.60;4.53;;;11.30;65.40;;;;;;4996517;28;20113;-77
2022/04/04 04:05:20;;;;;;;6.90;3.97;;;11.30;65.10;;;;;;4996943;28;20022;-77
2022/04/04 04:07:46;;;;;;;6.95;4.32;;;11.30;65.50;;;;;;5014357;28;20538;-77
2022/04/04 04:10:11;;;;;;;6.53;4.45;;;11.30;65.60;;;;;;5014613;28;20026;-77
2022/04/04 04:12:42;;;;;;;6.75;4.32;;;11.30;65.90;;;;;;4995505;28;20033;-76
2022/04/04 04:15:17;;;;;;;7.05;4.55;;;11.30;65.50;;;;;;4993384;28;20737;-77
2022/04/04 04:17:43;;;;;;;6.43;4.38;;;11.30;65.20;;;;;;5013419;28;20029;-76
2022/04/04 04:20:29;;;;;;;7.68;4.50;;;11.30;65.40;;;;;;4996715;28;20079;-78
2022/04/04 04:23:04;;;;;;;6.97;4.63;;;11.30;65.30;;;;;;4995859;28;20033;-77
2022/04/04 04:25:31;;;;;;;6.97;4.00;;;11.30;65.20;;;;;;5013282;28;20476;-76
2022/04/04 04:28:00;;;;;;;6.82;4.22;;;11.30;65.30;;;;;;5013776;28;20054;-77
2022/04/04 04:30:26;;;;;;;7.63;4.75;;;11.30;65.00;;;;;;4995970;28;20025;-77
2022/04/04 04:32:53;;;;;;;7.63;4.53;;;11.30;65.50;;;;;;4999466;28;20037;-76
2022/04/04 04:35:19;;;;;;;7.00;4.68;;;11.30;65.10;;;;;;5012938;28;20400;-76
2022/04/04 04:37:45;;;;;;;6.60;4.60;;;11.30;65.40;;;;;;5003441;28;20038;-76
2022/04/04 04:40:12;;;;;;;7.25;4.85;;;11.30;65.40;;;;;;5009967;28;20037;-76
2022/04/04 04:42:38;;;;;;;8.00;4.90;;;11.20;65.30;;;;;;4998802;28;20508;-77
2022/04/04 04:45:05;;;;;;;8.00;4.90;;;11.30;65.30;;;;;;5013634;28;20100;-77
2022/04/04 04:47:32;;;;;;;6.80;4.85;;;11.30;65.40;;;;;;4996780;28;20026;-76
2022/04/04 04:49:58;;;;;;;7.68;4.75;;;11.20;65.30;;;;;;4996821;28;20027;-77
2022/04/04 04:52:25;;;;;;;8.25;4.95;;;11.30;65.40;;;;;;4993878;28;20032;-77
2022/04/04 04:54:51;;;;;;;7.80;4.95;;;11.20;65.30;;;;;;5004322;28;20396;-76
2022/04/04 04:57:18;;;;;;;7.60;4.80;;;11.30;65.40;;;;;;5008844;28;20026;-77
2022/04/04 04:59:43;;;;;;;7.22;5.07;;;11.30;65.40;;;;;;5006492;28;20026;-77
2022/04/04 05:02:09;;;;;;;7.55;5.03;;;11.20;65.20;;;;;;5024032;28;20026;-77
2022/04/04 05:04:34;;;;;;;10.68;4.97;;;11.30;65.30;;;;;;5007513;28;20033;-76
2022/04/04 05:07:00;;;;;;;8.07;5.10;;;11.30;65.20;;;;;;4987404;28;20032;-77
2022/04/04 05:09:25;;;;;;;8.10;5.40;;;11.30;65.30;;;;;;5012032;28;20444;-76
2022/04/04 05:11:51;;;;;;;7.78;5.60;;;11.30;65.20;;;;;;5013902;28;20022;-76
2022/04/04 05:14:16;;;;;;;8.00;5.07;;;11.30;65.20;;;;;;4992497;28;20025;-77
2022/04/04 05:16:43;;;;;;;8.32;5.05;;;11.30;65.20;;;;;;4976590;28;20040;-76
2022/04/04 05:19:10;;;;;;;6.85;5.07;;;11.30;65.30;;;;;;4989878;28;20088;-77
2022/04/04 05:21:35;;;;;;;7.65;5.28;;;11.30;65.20;;;;;;4981684;28;20026;-77
2022/04/04 05:24:02;;;;;;;8.38;5.43;;;11.20;65.20;;;;;;5003681;28;20033;-76
2022/04/04 05:26:29;;;;;;;7.57;5.30;;;11.30;65.20;;;;;;5008569;28;20033;-76
2022/04/04 05:28:55;;;;;;;7.85;5.38;;;11.30;65.20;;;;;;4985635;28;20023;-77
2022/04/04 05:31:21;;;;;;;7.57;5.07;;;11.30;65.10;;;;;;5002647;28;20057;-76
2022/04/04 05:33:46;;;;;;;7.95;4.82;;;11.30;65.20;;;;;;4999479;28;20042;-77
2022/04/04 05:36:12;;;;;;;8.27;5.32;;;11.30;65.20;;;;;;5009686;28;20045;-78
2022/04/04 05:38:37;;;;;;;9.15;5.30;;;11.20;64.90;;;;;;5005310;28;20108;-77
2022/04/04 05:41:03;;;;;;;8.95;5.40;;;11.30;64.80;;;;;;5010115;28;20044;-81
2022/04/04 05:43:28;;;;;;;8.00;5.20;;;11.30;64.90;;;;;;5006767;28;20030;-78
2022/04/04 05:45:54;;;;;;;7.88;5.45;;;11.20;65.00;;;;;;5025552;28;20041;-77
2022/04/04 05:48:19;;;;;;;8.05;5.57;;;11.30;64.90;;;;;;5006753;28;20049;-78
2022/04/04 05:50:45;;;;;;;7.57;5.20;;;11.20;65.00;;;;;;5004688;28;20080;-77
2022/04/04 05:53:10;;;;;;;8.75;5.60;;;11.20;64.90;;;;;;4991906;28;20453;-77
2022/04/04 05:55:36;;;;;;;7.72;5.03;;;11.30;64.90;;;;;;4992092;28;20037;-77
2022/04/04 05:58:02;;;;;;;8.90;5.15;;;11.20;64.80;;;;;;4989566;28;20381;-76
2022/04/04 06:00:28;;;;;;;8.00;5.38;;;11.30;64.90;;;;;;4997178;28;20049;-77
2022/04/04 06:02:53;;;;;;;8.20;5.15;;;11.30;64.90;;;;;;4980311;28;20022;-77
2022/04/04 06:05:19;;;;;;;7.63;5.40;;;11.30;64.90;;;;;;4988024;28;20052;-78
2022/04/04 06:07:45;;;;;;;8.27;4.97;;;11.20;64.90;;;;;;4971413;28;20026;-78
2022/04/04 06:10:13;;;;;;;8.10;4.97;;;11.20;64.60;;;;;;4987159;28;20026;-77
2022/04/04 06:12:39;;;;;;;8.48;5.25;;;11.30;64.70;;;;;;5008745;28;20745;-76
2022/04/04 06:15:06;;;;;;;8.55;5.35;;;11.30;64.80;;;;;;4990715;28;20124;-77
2022/04/04 06:17:32;;;;;;;7.78;5.13;;;11.30;64.20;;;;;;4989941;28;20037;-77
2022/04/04 06:19:58;;;;;;;8.13;5.20;;;11.20;64.70;;;;;;4989751;28;20031;-79
2022/04/04 06:22:23;;;;;;;8.82;4.97;;;11.20;64.60;;;;;;5007925;28;20030;-77
2022/04/04 06:24:49;;;;;;;8.25;5.25;;;11.30;64.60;;;;;;4989763;28;20070;-77
2022/04/04 06:27:18;;;;;;;7.22;5.10;;;11.30;64.70;;;;;;4987805;28;20120;-76
2022/04/04 06:29:45;;;;;;;8.07;5.15;;;11.20;64.40;;;;;;4987517;28;20513;-77
2022/04/04 06:32:11;;;;;;;8.18;5.50;;;11.20;64.60;;;;;;4974552;28;20048;-75
2022/04/04 06:34:40;;;;;;;8.63;5.30;;;11.20;64.50;;;;;;5008051;28;20026;-76
2022/04/04 06:37:06;;;;;;;8.93;5.43;;;11.20;64.20;;;;;;5016383;28;20029;-77
2022/04/04 06:39:32;;;;;;;7.57;4.60;;;11.20;64.20;;;;;;5027759;28;20578;-76
2022/04/04 06:41:57;;;;;;;8.93;4.70;;;11.20;64.00;;;;;;5008996;28;20025;-76
2022/04/04 06:44:23;;;;;;;7.30;4.93;;;11.20;64.00;;;;;;5025363;28;20017;-76
2022/04/04 06:46:49;;;;;;;8.50;5.47;;;11.30;64.20;;;;;;5027212;28;20024;-76
2022/04/04 06:49:15;;;;;;;7.72;5.03;;;11.30;64.10;;;;;;5025764;28;20026;-76
2022/04/04 06:51:40;;;;;;;8.38;5.30;;;11.20;64.10;;;;;;5026299;28;20112;-75
2022/04/04 06:54:07;;;;;;;7.88;4.90;;;11.20;64.00;;;;;;5025976;28;20033;-76
2022/04/04 06:56:34;;;;;;;8.52;4.90;;;11.20;63.90;;;;;;5027334;28;20535;-76
2022/04/04 06:59:00;;;;;;;8.43;5.15;;;11.30;64.10;;;;;;5025612;28;20033;-76
2022/04/04 07:01:25;;;;;;;8.27;5.05;;;11.20;64.00;;;;;;5026354;28;20140;-75
2022/04/04 07:03:51;;;;;;;7.57;4.80;;;11.20;63.90;;;;;;5027172;28;20025;-76
2022/04/04 07:06:16;;;;;;;8.73;5.10;;;11.30;64.30;;;;;;5026464;28;20029;-77
2022/04/04 07:08:43;;;;;;;9.73;5.05;;;11.20;64.10;;;;;;5026068;28;20025;-76
2022/04/04 07:11:10;;;;;;;7.82;4.85;;;11.20;64.20;;;;;;5026493;28;20810;-76
2022/04/04 07:13:37;;;;;;;10.18;4.88;;;11.30;64.10;;;;;;5027531;28;20030;-76
2022/04/04 07:16:03;;;;;;;8.35;4.57;;;11.30;64.30;;;;;;5026661;28;20029;-76
2022/04/04 07:18:29;;;;;;;7.72;4.82;;;11.30;64.30;;;;;;5024121;28;20052;-76
2022/04/04 07:20:54;;;;;;;35.97;6.53;;;11.20;64.20;;;;;;5025558;28;20033;-76
2022/04/04 07:23:21;;;;;;;17.45;5.30;;;11.20;63.20;;;;;;5025152;28;20033;-76
2022/04/04 07:25:48;;;;;;;15.82;5.40;;;11.10;62.60;;;;;;5025547;28;20032;-76
2022/04/04 07:28:14;;;;;;;11.02;5.30;;;11.10;62.40;;;;;;5024385;28;20026;-76
2022/04/04 07:30:40;;;;;;;10.23;5.43;;;11.00;62.30;;;;;;5024143;28;20103;-76
2022/04/04 07:33:08;;;;;;;16.63;5.07;;;10.90;62.10;;;;;;5018072;28;20489;-75
2022/04/04 07:35:34;;;;;;;17.95;5.97;;;10.90;62.30;;;;;;5025512;28;20030;-76
2022/04/04 07:37:59;;;;;;;19.10;5.93;;;10.90;62.40;;;;;;5007097;28;20571;-75
2022/04/04 07:40:25;;;;;;;18.58;5.90;;;10.90;62.30;;;;;;5024114;28;20038;-75
2022/04/04 07:42:50;;;;;;;13.30;5.70;;;10.90;62.30;;;;;;5008322;28;20052;-76
2022/04/04 07:45:17;;;;;;;15.63;6.03;;;10.80;62.20;;;;;;5024501;28;20461;-75
2022/04/04 07:47:43;;;;;;;12.55;5.45;;;10.80;62.10;;;;;;5024498;28;20068;-76
2022/04/04 07:50:11;;;;;;;12.00;5.57;;;10.80;62.10;;;;;;5024767;28;20032;-75
2022/04/04 07:52:37;;;;;;;10.05;5.32;;;10.80;62.00;;;;;;5009320;28;20025;-76
2022/04/04 07:55:03;;;;;;;8.48;5.10;;;10.80;62.00;;;;;;5008981;28;20021;-76
2022/04/04 07:57:29;;;;;;;10.52;5.80;;;10.80;62.00;;;;;;5008655;28;20065;-75
2022/04/04 07:59:56;;;;;;;11.27;5.63;;;10.80;61.90;;;;;;5008747;28;20456;-75
2022/04/04 08:02:22;;;;;;;9.65;5.80;;;10.80;61.90;;;;;;5009070;28;20037;-76
2022/04/04 08:04:48;;;;;;;11.18;5.60;;;10.80;61.90;;;;;;5024254;28;20025;-76
2022/04/04 08:07:14;;;;;;;8.88;5.32;;;10.80;61.90;;;;;;5024088;28;20060;-77
2022/04/04 08:09:39;;;;;;;8.15;5.30;;;10.70;61.90;;;;;;5023857;28;20037;-76
2022/04/04 08:12:05;;;;;;;10.38;5.57;;;10.80;62.00;;;;;;5024188;28;20018;-76
2022/04/04 08:14:31;;;;;;;10.57;5.78;;;10.80;62.00;;;;;;5023949;28;20370;-75
2022/04/04 08:16:57;;;;;;;9.32;6.22;;;10.80;62.10;;;;;;5023931;28;20038;-76
2022/04/04 08:19:22;;;;;;;9.82;5.40;;;10.70;61.90;;;;;;5023409;28;20401;-75
2022/04/04 08:21:48;;;;;;;10.05;5.65;;;10.80;61.90;;;;;;5023946;28;20058;-76
2022/04/04 08:24:14;;;;;;;9.77;5.45;;;10.80;62.10;;;;;;5023589;28;20029;-76
2022/04/04 08:26:40;;;;;;;10.60;5.70;;;10.70;62.30;;;;;;5023855;28;20112;-75
2022/04/04 08:29:08;;;;;;;9.45;5.53;;;10.70;62.20;;;;;;5023217;28;20053;-75
2022/04/04 08:31:35;;;;;;;8.88;5.65;;;10.70;62.30;;;;;;5007367;28;20022;-75
2022/04/04 08:34:00;;;;;;;9.55;5.60;;;10.70;62.30;;;;;;5023922;28;20278;-75
2022/04/04 08:36:26;;;;;;;9.00;5.38;;;10.80;62.40;;;;;;5024173;28;20435;-75
2022/04/04 08:38:51;;;;;;;9.15;5.50;;;10.80;62.40;;;;;;5007983;28;20080;-75
2022/04/04 08:41:18;;;;;;;7.78;5.22;;;10.70;63.00;;;;;;5023299;28;20029;-76
2022/04/04 08:43:43;;;;;;;8.10;5.07;;;10.70;62.60;;;;;;5023018;28;20080;-75
2022/04/04 08:46:10;;;;;;;9.32;5.38;;;10.70;62.50;;;;;;5023657;28;20018;-76
2022/04/04 08:48:39;;;;;;;9.70;5.60;;;10.70;62.60;;;;;;5007873;28;20054;-76
2022/04/04 08:51:09;;;;;;;8.57;5.60;;;10.70;62.70;;;;;;5022954;28;20022;-76
2022/04/04 08:53:36;;;;;;;9.40;5.90;;;10.70;62.70;;;;;;5023277;28;20489;-76
2022/04/04 08:56:03;;;;;;;10.43;5.63;;;10.70;62.70;;;;;;5008055;28;20034;-75
2022/04/04 08:58:29;;;;;;;8.40;5.43;;;10.70;62.80;;;;;;5022695;28;20029;-75
2022/04/04 09:00:55;;;;;;;10.45;5.75;;;10.70;62.80;;;;;;5007707;28;20120;-74
2022/04/04 09:03:22;;;;;;;8.48;5.18;;;10.70;62.80;;;;;;5006213;28;20100;-75
2022/04/04 09:05:52;;;;;;;8.35;5.82;;;10.70;62.80;;;;;;5023220;28;20722;-76
2022/04/04 09:08:19;;;;;;;8.63;5.50;;;10.70;62.90;;;;;;5023010;28;20029;-75
2022/04/04 09:10:45;;;;;;;9.15;5.90;;;10.70;62.90;;;;;;5023095;28;20138;-76
2022/04/04 09:13:16;;;;;;;10.55;5.93;;;10.70;63.00;;;;;;5022885;28;20045;-75
2022/04/04 09:15:57;;;;;;;9.35;6.40;;;10.70;63.10;;;;;;5022878;28;20022;-75
2022/04/04 09:18:40;;;;;;;9.20;5.80;;;10.70;63.20;;;;;;5006106;28;20076;-76
2022/04/04 09:21:07;;;;;;;9.23;6.32;;;10.70;63.30;;;;;;5006358;28;20527;-75
2022/04/04 09:23:45;;;;;;;9.45;6.63;;;10.70;63.30;;;;;;5022774;28;20025;-77
2022/04/04 09:26:30;;;;;;;9.20;6.50;;;10.70;63.40;;;;;;5006129;28;20030;-75
2022/04/04 09:28:57;;;;;;;10.80;6.70;;;10.70;63.50;;;;;;5021287;28;20033;-75
2022/04/04 09:31:23;;;;;;;10.52;7.90;;;10.70;63.50;;;;;;5020980;28;20084;-75
2022/04/04 09:33:50;;;;;;;12.00;8.98;;;10.70;63.60;;;;;;5020859;28;20084;-75
2022/04/04 09:36:16;;;;;;;12.65;9.95;;;10.70;63.80;;;;;;5005704;28;20030;-76
2022/04/04 09:38:52;;;;;;;12.88;10.00;;;10.70;63.90;;;;;;5020560;28;20429;-75
2022/04/04 09:41:18;;;;;;;12.70;10.00;;;10.70;63.90;;;;;;5019261;28;20065;-76
2022/04/04 09:43:57;;;;;;;12.57;9.88;;;10.70;63.90;;;;;;5006772;28;20030;-75
2022/04/04 09:46:23;;;;;;;12.82;9.77;;;10.70;64.00;;;;;;5021247;28;20053;-75
2022/04/04 09:49:06;;;;;;;12.98;9.75;;;10.70;64.10;;;;;;5022032;28;20036;-75
2022/04/04 09:51:46;;;;;;;12.40;9.50;;;10.70;64.10;;;;;;5022073;28;20065;-76
2022/04/04 09:54:18;;;;;;;14.00;9.35;;;10.70;64.20;;;;;;5021280;28;20552;-76
2022/04/04 09:56:50;;;;;;;11.73;9.18;;;10.70;64.30;;;;;;5007024;28;20512;-75
2022/04/04 09:59:17;;;;;;;11.02;8.93;;;10.70;64.40;;;;;;5021778;28;20037;-75
2022/04/04 10:01:44;;;;;;;11.32;8.70;;;10.70;64.50;;;;;;5022321;28;20398;-74
2022/04/04 10:04:12;;;;;;;12.02;8.57;;;10.60;64.40;;;;;;5021753;28;20036;-76
2022/04/04 10:06:38;;;;;;;12.07;8.35;;;10.70;64.50;;;;;;5021724;28;20030;-76
2022/04/04 10:09:04;;;;;;;11.18;8.15;;;10.70;65.00;;;;;;5021678;28;20076;-75
2022/04/04 10:11:30;;;;;;;10.90;8.30;;;10.70;64.60;;;;;;5021710;28;20026;-75
2022/04/04 10:13:57;;;;;;;9.85;8.00;;;10.70;64.70;;;;;;5021804;28;20420;-76
2022/04/04 10:16:24;;;;;;;9.90;8.00;;;10.70;64.70;;;;;;5013460;28;20456;-75
2022/04/04 10:18:57;;;;;;;11.18;8.25;;;10.70;64.90;;;;;;4997807;28;20037;-76
2022/04/04 10:21:25;;;;;;;10.43;8.07;;;10.70;64.90;;;;;;5021522;28;20089;-75
2022/04/04 10:23:54;;;;;;;11.10;8.18;;;10.70;64.90;;;;;;5021647;28;20055;-75
2022/04/04 10:26:25;;;;;;;10.50;8.07;;;10.70;65.00;;;;;;5021336;28;20406;-75
2022/04/04 10:28:50;;;;;;;9.65;7.68;;;10.70;65.00;;;;;;5021156;28;20579;-76
2022/04/04 10:31:19;;;;;;;10.07;7.72;;;10.70;65.10;;;;;;5005976;28;20022;-75
2022/04/04 10:33:50;;;;;;;10.75;8.23;;;10.70;65.20;;;;;;5024410;28;20052;-76
2022/04/04 10:36:22;;;;;;;11.18;8.27;;;10.70;65.30;;;;;;5025768;28;20032;-74
2022/04/04 10:38:50;;;;;;;10.18;8.05;;;10.70;65.40;;;;;;5007745;28;20115;-75
2022/04/04 10:41:23;;;;;;;9.80;7.65;;;10.70;65.50;;;;;;5007963;28;20021;-76
2022/04/04 10:43:53;;;;;;;11.18;7.78;;;10.70;65.60;;;;;;5008029;28;20025;-77
2022/04/04 10:46:20;;;;;;;10.43;7.63;;;10.70;65.70;;;;;;5025789;28;20022;-77
2022/04/04 10:48:52;;;;;;;10.25;7.63;;;10.70;65.60;;;;;;5007896;28;20064;-75
2022/04/04 10:51:19;;;;;;;10.80;7.65;;;10.60;65.60;;;;;;5026139;28;20021;-76
2022/04/04 10:53:49;;;;;;;11.20;8.10;;;10.60;66.20;;;;;;5007839;28;20033;-75
2022/04/04 10:56:21;;;;;;;9.40;7.85;;;10.60;65.70;;;;;;5025968;28;20106;-76
2022/04/04 10:58:49;;;;;;;8.70;7.25;;;10.60;65.70;;;;;;5008151;28;20056;-76
2022/04/04 11:01:16;;;;;;;10.73;7.80;;;10.60;65.80;;;;;;5008683;28;20056;-76
2022/04/04 11:03:59;;;;;;;10.07;8.38;;;10.60;65.90;;;;;;5008051;28;20057;-76
2022/04/04 11:09:32;;;;;;;9.90;7.90;;;10.60;66.00;;;;;;5029524;28;20031;-76
2022/04/04 11:12:00;;;;;;;10.37;7.63;;;10.60;65.90;;;;;;5014170;28;20022;-75
2022/04/04 11:14:31;;;;;;;10.70;8.27;;;10.60;65.90;;;;;;5009708;28;20682;-76
2022/04/04 11:17:08;;;;;;;10.05;8.68;;;10.60;66.00;;;;;;4992114;28;20083;-77
2022/04/04 11:19:48;;;;;;;10.18;7.55;;;10.60;66.20;;;;;;4992074;28;20076;-75
2022/04/04 11:22:22;;;;;;;10.02;7.95;;;10.60;66.20;;;;;;4991861;28;20029;-76
2022/04/04 11:24:52;;;;;;;11.65;8.45;;;10.60;66.20;;;;;;4992061;28;20109;-75
2022/04/04 11:27:20;;;;;;;10.10;8.53;;;10.60;66.30;;;;;;4991602;28;20033;-75
2022/04/04 11:29:45;;;;;;;10.00;7.50;;;10.60;66.40;;;;;;4991653;28;20303;-75
2022/04/04 11:32:19;;;;;;;11.15;7.90;;;10.60;66.40;;;;;;5008388;28;20516;-75
2022/04/04 11:34:44;;;;;;;12.40;8.55;;;10.60;66.50;;;;;;5008733;28;20022;-75
2022/04/04 11:37:19;;;;;;;17.15;8.07;;;10.60;66.50;;;;;;4991656;28;20726;-75
2022/04/04 11:39:48;;;;;;;11.70;7.60;;;10.60;66.60;;;;;;4992460;28;20037;-75
2022/04/04 11:42:14;;;;;;;11.73;7.80;;;10.60;66.70;;;;;;4991737;28;20053;-75
2022/04/04 11:44:48;;;;;;;8.27;7.03;;;10.60;66.60;;;;;;5010176;28;20026;-76
2022/04/04 11:47:15;;;;;;;11.38;7.35;;;10.60;66.70;;;;;;4991655;28;20030;-76
2022/04/04 11:49:44;;;;;;;9.35;7.57;;;10.50;66.70;;;;;;4991602;28;20026;-76
2022/04/04 11:52:16;;;;;;;9.32;6.97;;;10.60;66.70;;;;;;5009351;28;20096;-76
2022/04/04 11:54:51;;;;;;;;;;;10.60;66.80;;;;;;5010120;28;20054;-76
2022/04/04 11:57:18;;;;;;;10.02;7.20;;;10.60;66.80;;;;;;5009270;28;20687;-76
2022/04/04 11:59:48;;;;;;;9.70;7.15;;;10.60;66.90;;;;;;5009618;28;20558;-77
2022/04/04 12:02:14;;;;;;;9.45;6.70;;;10.60;66.90;;;;;;4991464;28;20029;-76
2022/04/04 12:04:42;;;;;;;9.38;7.18;;;10.60;67.00;;;;;;4991676;28;20057;-77
2022/04/04 12:07:11;;;;;;;10.20;7.03;;;10.60;67.00;;;;;;5008951;28;20100;-76
2022/04/04 12:09:39;;;;;;;10.35;7.40;;;10.60;67.00;;;;;;4991169;28;20403;-76
2022/04/04 12:12:12;;;;;;;9.82;6.90;;;10.60;67.20;;;;;;4991471;28;20511;-76
2022/04/04 12:14:40;;;;;;;9.60;6.80;;;10.60;67.90;;;;;;5008586;28;20434;-76
2022/04/04 12:17:07;;;;;;;11.15;7.10;;;10.60;67.40;;;;;;4990090;28;20032;-75
2022/04/04 12:19:44;;;;;;;10.85;6.88;;;10.60;67.40;;;;;;5008544;28;20112;-77
2022/04/04 12:24:58;;;;;;;8.30;6.50;;;10.60;67.50;;;;;;5009003;28;20040;-76
2022/04/04 12:27:24;;;;;;;8.38;6.90;;;10.60;67.60;;;;;;5008284;28;20026;-76
2022/04/04 12:30:05;;;;;;;9.43;6.70;;;10.50;67.60;;;;;;5009181;28;20036;-75
2022/04/04 12:32:37;;;;;;;9.95;7.28;;;10.60;67.70;;;;;;4990680;28;20046;-76
2022/04/04 12:35:06;;;;;;;9.00;6.85;;;10.60;68.40;;;;;;5008275;28;20040;-76
2022/04/04 12:37:40;;;;;;;15.02;8.10;;;10.60;67.90;;;;;;4988619;28;20026;-76
2022/04/04 12:40:20;;;;;;;11.73;7.78;;;10.60;68.10;;;;;;4988972;28;20129;-76
2022/04/04 12:42:48;;;;;;;10.30;7.88;;;10.60;68.10;;;;;;4989027;28;20030;-76
2022/04/04 12:45:17;;;;;;;10.63;7.88;;;10.60;68.10;;;;;;4988912;28;20061;-75
2022/04/04 12:47:55;;;;;;;9.82;7.40;;;10.60;68.20;;;;;;5006244;28;20080;-77
2022/04/04 12:50:21;;;;;;;10.80;7.25;;;10.60;68.20;;;;;;4989046;28;20029;-76
2022/04/04 12:53:01;;;;;;;9.13;7.07;;;10.60;68.30;;;;;;4989664;28;20068;-76